sensor_id;sensor_type;location;lat;lon;timestamp;pressure;altitude;pressure_sealevel;temperature;humidity
12624;BME280;6377;42.836;23.998;2023-07-16T00:02:05;95872.81;;;24.71;100.00
12624;BME280;6377;42.836;23.998;2023-07-16T00:04:33;95874.53;;;24.82;100.00
12624;BME280;6377;42.836;23.998;2023-07-16T00:07:00;95873.69;;;24.82;100.00
12624;BME280;6377;42.836;23.998;2023-07-16T00:09:28;95869.16;;;24.92;100.00
12624;BME280;6377;42.836;23.998;2023-07-16T00:11:56;95868.34;;;24.92;100.00
12624;BME280;6377;42.836;23.998;2023-07-16T00:14:24;95865.47;;;24.67;100.00
12624;BME280;6377;42.836;23.998;2023-07-16T00:16:52;95849.44;;;24.55;100.00
12624;BME280;6377;42.836;23.998;2023-07-16T00:19:19;95861.38;;;24.59;100.00
12624;BME280;6377;42.836;23.998;2023-07-16T00:21:47;95860.06;;;24.67;100.00
12624;BME280;6377;42.836;23.998;2023-07-16T00:24:14;95853.00;;;24.61;100.00
12624;BME280;6377;42.836;23.998;2023-07-16T00:26:42;95856.84;;;24.75;100.00
12624;BME280;6377;42.836;23.998;2023-07-16T00:29:09;95851.72;;;24.73;100.00
12624;BME280;6377;42.836;23.998;2023-07-16T00:31:38;95850.38;;;24.76;100.00
12624;BME280;6377;42.836;23.998;2023-07-16T00:34:06;95856.91;;;24.80;100.00
12624;BME280;6377;42.836;23.998;2023-07-16T00:36:33;95845.00;;;24.81;100.00
12624;BME280;6377;42.836;23.998;2023-07-16T00:39:01;95853.94;;;24.81;100.00
12624;BME280;6377;42.836;23.998;2023-07-16T00:41:28;95851.66;;;24.63;100.00
12624;BME280;6377;42.836;23.998;2023-07-16T00:43:55;95855.25;;;24.37;100.00
12624;BME280;6377;42.836;23.998;2023-07-16T00:46:22;95842.47;;;24.22;100.00
12624;BME280;6377;42.836;23.998;2023-07-16T00:48:52;95849.31;;;24.03;100.00
12624;BME280;6377;42.836;23.998;2023-07-16T00:51:22;95844.16;;;24.02;100.00
12624;BME280;6377;42.836;23.998;2023-07-16T00:53:50;95708.78;;;23.29;100.00
12624;BME280;6377;42.836;23.998;2023-07-16T00:56:18;95809.28;;;23.95;100.00
12624;BME280;6377;42.836;23.998;2023-07-16T01:01:12;95808.97;;;23.91;100.00
12624;BME280;6377;42.836;23.998;2023-07-16T01:03:40;95836.91;;;24.07;100.00
12624;BME280;6377;42.836;23.998;2023-07-16T01:06:13;95826.34;;;24.01;100.00
12624;BME280;6377;42.836;23.998;2023-07-16T01:08:46;95848.66;;;24.18;100.00
12624;BME280;6377;42.836;23.998;2023-07-16T01:11:15;95824.47;;;24.01;100.00
12624;BME280;6377;42.836;23.998;2023-07-16T01:13:42;95854.56;;;24.15;100.00
12624;BME280;6377;42.836;23.998;2023-07-16T01:16:18;95828.72;;;23.97;100.00
12624;BME280;6377;42.836;23.998;2023-07-16T01:18:46;95704.72;;;23.27;100.00
12624;BME280;6377;42.836;23.998;2023-07-16T01:21:15;95836.25;;;24.22;100.00
12624;BME280;6377;42.836;23.998;2023-07-16T01:23:59;95845.09;;;24.12;100.00
12624;BME280;6377;42.836;23.998;2023-07-16T01:26:51;95837.72;;;24.08;100.00
12624;BME280;6377;42.836;23.998;2023-07-16T01:29:32;95798.19;;;23.60;100.00
12624;BME280;6377;42.836;23.998;2023-07-16T01:32:03;95776.94;;;23.41;100.00
12624;BME280;6377;42.836;23.998;2023-07-16T01:34:32;95830.47;;;23.81;100.00
12624;BME280;6377;42.836;23.998;2023-07-16T01:37:01;95728.16;;;23.21;100.00
12624;BME280;6377;42.836;23.998;2023-07-16T01:39:29;95800.19;;;23.74;100.00
12624;BME280;6377;42.836;23.998;2023-07-16T01:41:58;95774.63;;;23.55;100.00
12624;BME280;6377;42.836;23.998;2023-07-16T01:44:26;95781.31;;;23.48;100.00
12624;BME280;6377;42.836;23.998;2023-07-16T01:47:07;95807.72;;;23.72;100.00
12624;BME280;6377;42.836;23.998;2023-07-16T01:49:35;95754.91;;;23.55;100.00
12624;BME280;6377;42.836;23.998;2023-07-16T01:52:04;95826.19;;;24.12;100.00
12624;BME280;6377;42.836;23.998;2023-07-16T01:54:32;95826.25;;;24.22;100.00
12624;BME280;6377;42.836;23.998;2023-07-16T01:56:59;95771.69;;;23.93;100.00
12624;BME280;6377;42.836;23.998;2023-07-16T01:59:26;95814.34;;;24.18;100.00
12624;BME280;6377;42.836;23.998;2023-07-16T02:01:55;95789.91;;;24.08;100.00
12624;BME280;6377;42.836;23.998;2023-07-16T02:04:23;95803.16;;;24.10;100.00
12624;BME280;6377;42.836;23.998;2023-07-16T02:06:50;95790.00;;;24.18;100.00
12624;BME280;6377;42.836;23.998;2023-07-16T02:09:17;95789.19;;;24.18;100.00
12624;BME280;6377;42.836;23.998;2023-07-16T02:11:45;95795.59;;;24.07;100.00
12624;BME280;6377;42.836;23.998;2023-07-16T02:14:12;95792.31;;;24.05;100.00
12624;BME280;6377;42.836;23.998;2023-07-16T02:16:40;95784.47;;;24.03;100.00
12624;BME280;6377;42.836;23.998;2023-07-16T02:19:09;95779.06;;;24.03;100.00
12624;BME280;6377;42.836;23.998;2023-07-16T02:21:36;95797.38;;;23.96;100.00
12624;BME280;6377;42.836;23.998;2023-07-16T02:24:03;95788.75;;;23.99;100.00
12624;BME280;6377;42.836;23.998;2023-07-16T02:26:31;95683.88;;;23.22;100.00
12624;BME280;6377;42.836;23.998;2023-07-16T02:28:58;95784.00;;;23.74;100.00
12624;BME280;6377;42.836;23.998;2023-07-16T02:31:25;95772.66;;;23.77;100.00
12624;BME280;6377;42.836;23.998;2023-07-16T02:33:52;95767.00;;;23.79;100.00
12624;BME280;6377;42.836;23.998;2023-07-16T02:36:21;95789.25;;;23.91;100.00
12624;BME280;6377;42.836;23.998;2023-07-16T02:38:48;95779.03;;;23.98;100.00
12624;BME280;6377;42.836;23.998;2023-07-16T02:41:16;95739.66;;;23.70;100.00
12624;BME280;6377;42.836;23.998;2023-07-16T02:43:45;95780.44;;;24.06;100.00
12624;BME280;6377;42.836;23.998;2023-07-16T02:46:12;95780.31;;;23.90;100.00
12624;BME280;6377;42.836;23.998;2023-07-16T02:48:39;95824.16;;;23.97;100.00
12624;BME280;6377;42.836;23.998;2023-07-16T02:51:07;95785.31;;;23.72;100.00
12624;BME280;6377;42.836;23.998;2023-07-16T02:53:35;95793.88;;;23.64;100.00
12624;BME280;6377;42.836;23.998;2023-07-16T02:56:03;95810.88;;;23.64;100.00
12624;BME280;6377;42.836;23.998;2023-07-16T02:58:30;95829.38;;;23.77;100.00
12624;BME280;6377;42.836;23.998;2023-07-16T03:00:57;95800.22;;;23.48;100.00
12624;BME280;6377;42.836;23.998;2023-07-16T03:03:25;95761.94;;;23.29;100.00
12624;BME280;6377;42.836;23.998;2023-07-16T03:05:52;95812.59;;;23.43;100.00
12624;BME280;6377;42.836;23.998;2023-07-16T03:08:19;95777.06;;;23.30;100.00
12624;BME280;6377;42.836;23.998;2023-07-16T03:10:48;95831.44;;;23.65;100.00
12624;BME280;6377;42.836;23.998;2023-07-16T03:13:15;95828.13;;;23.58;100.00
12624;BME280;6377;42.836;23.998;2023-07-16T03:15:42;95839.78;;;23.64;100.00
12624;BME280;6377;42.836;23.998;2023-07-16T03:18:09;95842.75;;;23.62;100.00
12624;BME280;6377;42.836;23.998;2023-07-16T03:20:36;95842.13;;;23.55;100.00
12624;BME280;6377;42.836;23.998;2023-07-16T03:23:03;95847.06;;;23.63;100.00
12624;BME280;6377;42.836;23.998;2023-07-16T03:25:31;95842.75;;;23.62;100.00
12624;BME280;6377;42.836;23.998;2023-07-16T03:27:59;95847.03;;;23.58;100.00
12624;BME280;6377;42.836;23.998;2023-07-16T03:30:27;95848.50;;;23.44;100.00
12624;BME280;6377;42.836;23.998;2023-07-16T03:32:54;95844.09;;;23.38;100.00
12624;BME280;6377;42.836;23.998;2023-07-16T03:35:21;95837.88;;;23.37;100.00
12624;BME280;6377;42.836;23.998;2023-07-16T03:37:48;95852.03;;;23.45;100.00
12624;BME280;6377;42.836;23.998;2023-07-16T03:40:17;95754.69;;;22.81;100.00
12624;BME280;6377;42.836;23.998;2023-07-16T03:42:45;95822.22;;;22.91;100.00
12624;BME280;6377;42.836;23.998;2023-07-16T03:45:14;95853.53;;;23.14;100.00
12624;BME280;6377;42.836;23.998;2023-07-16T03:47:41;95862.25;;;23.21;100.00
12624;BME280;6377;42.836;23.998;2023-07-16T03:50:09;95743.69;;;22.44;100.00
12624;BME280;6377;42.836;23.998;2023-07-16T03:52:36;95863.88;;;23.22;100.00
12624;BME280;6377;42.836;23.998;2023-07-16T03:55:04;95835.22;;;23.16;100.00
12624;BME280;6377;42.836;23.998;2023-07-16T03:57:32;95858.53;;;23.27;100.00
12624;BME280;6377;42.836;23.998;2023-07-16T03:59:59;95838.00;;;23.26;100.00
12624;BME280;6377;42.836;23.998;2023-07-16T04:02:28;95862.81;;;23.45;100.00
12624;BME280;6377;42.836;23.998;2023-07-16T04:04:55;95863.72;;;23.55;100.00
12624;BME280;6377;42.836;23.998;2023-07-16T04:07:22;95854.88;;;23.60;100.00
12624;BME280;6377;42.836;23.998;2023-07-16T04:09:49;95856.09;;;23.47;100.00
12624;BME280;6377;42.836;23.998;2023-07-16T04:12:17;95759.97;;;22.71;100.00
12624;BME280;6377;42.836;23.998;2023-07-16T04:14:44;95867.75;;;23.53;100.00
12624;BME280;6377;42.836;23.998;2023-07-16T04:17:12;95869.91;;;23.51;100.00
12624;BME280;6377;42.836;23.998;2023-07-16T04:19:40;95869.41;;;23.54;100.00
12624;BME280;6377;42.836;23.998;2023-07-16T04:22:08;95871.81;;;23.55;100.00
12624;BME280;6377;42.836;23.998;2023-07-16T04:24:35;95862.41;;;23.58;100.00
12624;BME280;6377;42.836;23.998;2023-07-16T04:27:02;95754.63;;;22.98;100.00
12624;BME280;6377;42.836;23.998;2023-07-16T04:29:30;95818.25;;;23.42;100.00
12624;BME280;6377;42.836;23.998;2023-07-16T04:31:57;95863.56;;;23.67;100.00
12624;BME280;6377;42.836;23.998;2023-07-16T04:34:24;95797.41;;;22.89;100.00
12624;BME280;6377;42.836;23.998;2023-07-16T04:36:53;95874.28;;;23.35;100.00
12624;BME280;6377;42.836;23.998;2023-07-16T04:39:20;95830.31;;;22.91;100.00
12624;BME280;6377;42.836;23.998;2023-07-16T04:41:47;95853.16;;;23.05;100.00
12624;BME280;6377;42.836;23.998;2023-07-16T04:44:15;95790.28;;;22.61;100.00
12624;BME280;6377;42.836;23.998;2023-07-16T04:46:42;95871.81;;;23.07;100.00
12624;BME280;6377;42.836;23.998;2023-07-16T04:49:09;95874.78;;;23.10;100.00
12624;BME280;6377;42.836;23.998;2023-07-16T04:51:36;95879.44;;;23.15;100.00
12624;BME280;6377;42.836;23.998;2023-07-16T04:54:05;95875.19;;;23.19;100.00
12624;BME280;6377;42.836;23.998;2023-07-16T04:56:32;95824.25;;;23.01;100.00
12624;BME280;6377;42.836;23.998;2023-07-16T04:59:00;95880.06;;;23.43;100.00
12624;BME280;6377;42.836;23.998;2023-07-16T05:01:27;95785.09;;;22.76;100.00
12624;BME280;6377;42.836;23.998;2023-07-16T05:03:54;95901.56;;;23.60;100.00
12624;BME280;6377;42.836;23.998;2023-07-16T05:06:21;95879.03;;;23.71;100.00
12624;BME280;6377;42.836;23.998;2023-07-16T05:08:49;95885.03;;;23.78;100.00
12624;BME280;6377;42.836;23.998;2023-07-16T05:11:17;95890.53;;;23.88;100.00
12624;BME280;6377;42.836;23.998;2023-07-16T05:13:45;95886.22;;;23.92;100.00
12624;BME280;6377;42.836;23.998;2023-07-16T05:16:12;95860.88;;;23.67;100.00
12624;BME280;6377;42.836;23.998;2023-07-16T05:18:39;95891.19;;;24.01;100.00
12624;BME280;6377;42.836;23.998;2023-07-16T05:21:06;95883.91;;;24.01;100.00
12624;BME280;6377;42.836;23.998;2023-07-16T05:23:33;95887.75;;;24.10;100.00
12624;BME280;6377;42.836;23.998;2023-07-16T05:26:00;95911.06;;;24.16;100.00
12624;BME280;6377;42.836;23.998;2023-07-16T05:28:29;95883.59;;;24.24;100.00
12624;BME280;6377;42.836;23.998;2023-07-16T05:31:00;95878.69;;;24.21;100.00
12624;BME280;6377;42.836;23.998;2023-07-16T05:33:27;95879.41;;;24.12;100.00
12624;BME280;6377;42.836;23.998;2023-07-16T05:35:54;95862.56;;;24.05;100.00
12624;BME280;6377;42.836;23.998;2023-07-16T05:38:22;95889.56;;;24.31;100.00
12624;BME280;6377;42.836;23.998;2023-07-16T05:40:49;95900.16;;;24.38;100.00
12624;BME280;6377;42.836;23.998;2023-07-16T05:43:17;95752.22;;;23.55;100.00
12624;BME280;6377;42.836;23.998;2023-07-16T05:45:45;95895.09;;;24.46;100.00
12624;BME280;6377;42.836;23.998;2023-07-16T05:48:13;95869.72;;;24.52;100.00
12624;BME280;6377;42.836;23.998;2023-07-16T05:50:40;95847.47;;;24.40;100.00
12624;BME280;6377;42.836;23.998;2023-07-16T05:53:10;95845.38;;;24.52;100.00
12624;BME280;6377;42.836;23.998;2023-07-16T05:55:39;95847.28;;;24.57;100.00
12624;BME280;6377;42.836;23.998;2023-07-16T05:58:07;95828.03;;;24.48;100.00
12624;BME280;6377;42.836;23.998;2023-07-16T06:00:34;95864.81;;;24.86;100.00
12624;BME280;6377;42.836;23.998;2023-07-16T06:03:03;95829.75;;;24.60;100.00
12624;BME280;6377;42.836;23.998;2023-07-16T06:05:30;95855.03;;;24.80;100.00
12624;BME280;6377;42.836;23.998;2023-07-16T06:08:00;95873.03;;;25.12;100.00
12624;BME280;6377;42.836;23.998;2023-07-16T06:10:27;95870.59;;;25.10;100.00
12624;BME280;6377;42.836;23.998;2023-07-16T06:12:54;95846.97;;;24.95;100.00
12624;BME280;6377;42.836;23.998;2023-07-16T06:15:22;95741.50;;;24.43;100.00
12624;BME280;6377;42.836;23.998;2023-07-16T06:17:49;95841.09;;;25.08;100.00
12624;BME280;6377;42.836;23.998;2023-07-16T06:20:18;95784.44;;;24.87;100.00
12624;BME280;6377;42.836;23.998;2023-07-16T06:22:45;95862.09;;;25.48;100.00
12624;BME280;6377;42.836;23.998;2023-07-16T06:25:12;95881.38;;;25.62;100.00
12624;BME280;6377;42.836;23.998;2023-07-16T06:27:39;95881.13;;;25.79;100.00
12624;BME280;6377;42.836;23.998;2023-07-16T06:30:07;95872.47;;;25.92;100.00
12624;BME280;6377;42.836;23.998;2023-07-16T06:32:34;95882.78;;;26.05;100.00
12624;BME280;6377;42.836;23.998;2023-07-16T06:35:02;95779.22;;;25.52;100.00
12624;BME280;6377;42.836;23.998;2023-07-16T06:37:30;95820.94;;;25.72;100.00
12624;BME280;6377;42.836;23.998;2023-07-16T06:39:58;95868.69;;;26.33;100.00
12624;BME280;6377;42.836;23.998;2023-07-16T06:42:25;95873.34;;;26.33;100.00
12624;BME280;6377;42.836;23.998;2023-07-16T06:44:52;95874.66;;;26.45;100.00
12624;BME280;6377;42.836;23.998;2023-07-16T06:47:19;95873.84;;;26.55;100.00
12624;BME280;6377;42.836;23.998;2023-07-16T06:49:47;95871.66;;;26.67;100.00
12624;BME280;6377;42.836;23.998;2023-07-16T06:52:20;95864.59;;;26.81;99.59
12624;BME280;6377;42.836;23.998;2023-07-16T06:54:49;95864.28;;;26.93;96.03
12624;BME280;6377;42.836;23.998;2023-07-16T06:57:16;95866.69;;;27.04;95.87
12624;BME280;6377;42.836;23.998;2023-07-16T06:59:44;95860.38;;;27.19;97.45
12624;BME280;6377;42.836;23.998;2023-07-16T07:02:12;95862.22;;;27.34;94.59
12624;BME280;6377;42.836;23.998;2023-07-16T07:04:39;95860.03;;;27.41;91.75
12624;BME280;6377;42.836;23.998;2023-07-16T07:07:06;95821.28;;;27.20;92.12
12624;BME280;6377;42.836;23.998;2023-07-16T07:09:33;95854.50;;;27.61;95.42
12624;BME280;6377;42.836;23.998;2023-07-16T07:12:03;95855.25;;;27.76;98.05
12624;BME280;6377;42.836;23.998;2023-07-16T07:14:30;95860.03;;;27.90;88.56
12624;BME280;6377;42.836;23.998;2023-07-16T07:16:57;95811.53;;;27.68;85.43
12624;BME280;6377;42.836;23.998;2023-07-16T07:19:25;95853.09;;;28.12;85.61
12624;BME280;6377;42.836;23.998;2023-07-16T07:21:52;95859.84;;;28.20;83.33
12624;BME280;6377;42.836;23.998;2023-07-16T07:24:19;95860.56;;;28.30;86.75
12624;BME280;6377;42.836;23.998;2023-07-16T07:26:46;95858.84;;;28.40;83.56
12624;BME280;6377;42.836;23.998;2023-07-16T07:29:15;95876.94;;;28.54;84.95
12624;BME280;6377;42.836;23.998;2023-07-16T07:31:42;95857.03;;;28.59;81.29
12624;BME280;6377;42.836;23.998;2023-07-16T07:34:10;95869.25;;;28.66;79.21
12624;BME280;6377;42.836;23.998;2023-07-16T07:36:37;95755.38;;;27.87;78.47
12624;BME280;6377;42.836;23.998;2023-07-16T07:39:04;95859.44;;;28.65;76.73
12624;BME280;6377;42.836;23.998;2023-07-16T07:41:31;95854.00;;;28.89;76.87
12624;BME280;6377;42.836;23.998;2023-07-16T07:43:59;95806.63;;;28.66;77.71
12624;BME280;6377;42.836;23.998;2023-07-16T07:46:27;95844.69;;;28.95;74.18
12624;BME280;6377;42.836;23.998;2023-07-16T07:48:55;95737.00;;;28.36;75.00
12624;BME280;6377;42.836;23.998;2023-07-16T07:51:22;95862.19;;;29.13;76.59
12624;BME280;6377;42.836;23.998;2023-07-16T07:53:49;95855.59;;;28.95;76.66
12624;BME280;6377;42.836;23.998;2023-07-16T07:56:16;95758.09;;;28.50;75.95
12624;BME280;6377;42.836;23.998;2023-07-16T07:58:44;95860.22;;;29.18;78.35
12624;BME280;6377;42.836;23.998;2023-07-16T08:01:11;95858.53;;;29.22;76.86
12624;BME280;6377;42.836;23.998;2023-07-16T08:03:40;95861.28;;;29.46;76.93
12624;BME280;6377;42.836;23.998;2023-07-16T08:06:07;95862.81;;;29.52;75.90
12624;BME280;6377;42.836;23.998;2023-07-16T08:08:36;95851.41;;;29.50;76.97
12624;BME280;6377;42.836;23.998;2023-07-16T08:11:04;95864.38;;;29.77;72.79
12624;BME280;6377;42.836;23.998;2023-07-16T08:13:31;95875.78;;;29.84;75.31
12624;BME280;6377;42.836;23.998;2023-07-16T08:15:58;95862.88;;;29.89;74.09
12624;BME280;6377;42.836;23.998;2023-07-16T08:18:26;95869.28;;;29.98;73.14
12624;BME280;6377;42.836;23.998;2023-07-16T08:20:54;95750.34;;;29.28;74.01
12624;BME280;6377;42.836;23.998;2023-07-16T08:23:21;95863.00;;;30.17;72.96
12624;BME280;6377;42.836;23.998;2023-07-16T08:25:49;95870.22;;;30.26;72.19
12624;BME280;6377;42.836;23.998;2023-07-16T08:28:17;95794.09;;;29.92;68.35
12624;BME280;6377;42.836;23.998;2023-07-16T08:30:46;95867.41;;;30.50;67.46
12624;BME280;6377;42.836;23.998;2023-07-16T08:33:14;95872.38;;;30.62;66.28
12624;BME280;6377;42.836;23.998;2023-07-16T08:35:41;95873.47;;;30.61;66.81
12624;BME280;6377;42.836;23.998;2023-07-16T08:38:10;95875.72;;;30.59;66.27
12624;BME280;6377;42.836;23.998;2023-07-16T08:40:37;95869.84;;;30.65;65.27
12624;BME280;6377;42.836;23.998;2023-07-16T08:43:06;95879.06;;;30.83;63.78
12624;BME280;6377;42.836;23.998;2023-07-16T08:45:39;95864.75;;;30.91;65.69
12624;BME280;6377;42.836;23.998;2023-07-16T08:48:08;95870.94;;;31.10;64.31
12624;BME280;6377;42.836;23.998;2023-07-16T08:50:36;95850.78;;;30.92;63.84
12624;BME280;6377;42.836;23.998;2023-07-16T08:53:04;95868.91;;;31.16;63.00
12624;BME280;6377;42.836;23.998;2023-07-16T08:55:33;95757.53;;;30.26;62.28
12624;BME280;6377;42.836;23.998;2023-07-16T08:58:03;95855.03;;;31.12;62.49
12624;BME280;6377;42.836;23.998;2023-07-16T09:00:32;95865.78;;;31.36;61.65
12624;BME280;6377;42.836;23.998;2023-07-16T09:02:59;95866.59;;;31.50;61.14
12624;BME280;6377;42.836;23.998;2023-07-16T09:05:28;95856.97;;;31.39;61.23
12624;BME280;6377;42.836;23.998;2023-07-16T09:07:56;95864.88;;;31.27;58.89
12624;BME280;6377;42.836;23.998;2023-07-16T09:10:23;95865.97;;;31.53;58.70
12624;BME280;6377;42.836;23.998;2023-07-16T09:12:52;95854.44;;;31.56;59.18
12624;BME280;6377;42.836;23.998;2023-07-16T09:15:19;95855.88;;;31.89;59.17
12624;BME280;6377;42.836;23.998;2023-07-16T09:17:47;95867.84;;;31.80;57.85
12624;BME280;6377;42.836;23.998;2023-07-16T09:20:15;95836.22;;;31.24;57.87
12624;BME280;6377;42.836;23.998;2023-07-16T09:22:43;95861.41;;;31.62;58.76
12624;BME280;6377;42.836;23.998;2023-07-16T09:25:11;95875.34;;;31.88;56.02
12624;BME280;6377;42.836;23.998;2023-07-16T09:27:38;95860.06;;;31.87;55.79
12624;BME280;6377;42.836;23.998;2023-07-16T09:30:14;95804.38;;;31.69;56.05
12624;BME280;6377;42.836;23.998;2023-07-16T09:32:42;95854.16;;;32.29;55.78
12624;BME280;6377;42.836;23.998;2023-07-16T09:35:10;95862.44;;;32.38;56.20
12624;BME280;6377;42.836;23.998;2023-07-16T09:37:37;95862.28;;;32.43;55.16
12624;BME280;6377;42.836;23.998;2023-07-16T09:40:06;95866.13;;;32.55;54.68
12624;BME280;6377;42.836;23.998;2023-07-16T09:42:37;95863.53;;;32.37;54.96
12624;BME280;6377;42.836;23.998;2023-07-16T09:45:07;95820.25;;;32.16;55.11
12624;BME280;6377;42.836;23.998;2023-07-16T09:47:35;95841.75;;;32.54;54.82
12624;BME280;6377;42.836;23.998;2023-07-16T09:50:02;95857.78;;;32.47;54.69
12624;BME280;6377;42.836;23.998;2023-07-16T09:52:32;95847.91;;;32.15;54.49
12624;BME280;6377;42.836;23.998;2023-07-16T09:55:02;95849.41;;;32.43;54.86
12624;BME280;6377;42.836;23.998;2023-07-16T09:57:34;95824.22;;;32.33;53.58
12624;BME280;6377;42.836;23.998;2023-07-16T10:00:05;95856.28;;;32.85;53.39
12624;BME280;6377;42.836;23.998;2023-07-16T10:02:34;95830.97;;;33.10;53.92
12624;BME280;6377;42.836;23.998;2023-07-16T10:05:11;95824.78;;;33.53;51.50
12624;BME280;6377;42.836;23.998;2023-07-16T10:07:40;95852.19;;;33.44;51.40
12624;BME280;6377;42.836;23.998;2023-07-16T10:10:08;95847.91;;;33.69;51.60
12624;BME280;6377;42.836;23.998;2023-07-16T10:12:36;95842.63;;;34.07;49.81
12624;BME280;6377;42.836;23.998;2023-07-16T10:15:04;95848.31;;;34.10;49.38
12624;BME280;6377;42.836;23.998;2023-07-16T10:17:34;95757.53;;;33.55;47.96
12624;BME280;6377;42.836;23.998;2023-07-16T10:20:05;95757.66;;;33.42;49.90
12624;BME280;6377;42.836;23.998;2023-07-16T10:22:37;95816.47;;;33.92;47.69
12624;BME280;6377;42.836;23.998;2023-07-16T10:25:08;95840.16;;;34.57;46.59
12624;BME280;6377;42.836;23.998;2023-07-16T10:27:36;95831.66;;;35.05;46.67
12624;BME280;6377;42.836;23.998;2023-07-16T10:30:05;95842.16;;;35.40;45.47
12624;BME280;6377;42.836;23.998;2023-07-16T10:32:34;95829.94;;;34.83;45.96
12624;BME280;6377;42.836;23.998;2023-07-16T10:35:02;95841.94;;;34.78;46.95
12624;BME280;6377;42.836;23.998;2023-07-16T10:37:29;95822.56;;;34.58;45.87
12624;BME280;6377;42.836;23.998;2023-07-16T10:39:59;95824.31;;;34.71;45.80
12624;BME280;6377;42.836;23.998;2023-07-16T10:42:27;95835.38;;;35.38;45.75
12624;BME280;6377;42.836;23.998;2023-07-16T10:44:57;95823.63;;;35.67;45.33
12624;BME280;6377;42.836;23.998;2023-07-16T10:47:30;95833.34;;;35.85;44.23
12624;BME280;6377;42.836;23.998;2023-07-16T10:50:00;95835.81;;;34.64;45.12
12624;BME280;6377;42.836;23.998;2023-07-16T10:52:27;95841.00;;;34.49;45.63
12624;BME280;6377;42.836;23.998;2023-07-16T10:54:54;95837.59;;;35.15;45.35
12624;BME280;6377;42.836;23.998;2023-07-16T10:57:24;95835.69;;;35.74;44.64
12624;BME280;6377;42.836;23.998;2023-07-16T10:59:52;95822.88;;;36.20;42.77
12624;BME280;6377;42.836;23.998;2023-07-16T11:02:21;95822.78;;;36.49;42.10
12624;BME280;6377;42.836;23.998;2023-07-16T11:04:49;95833.19;;;36.43;41.76
12624;BME280;6377;42.836;23.998;2023-07-16T11:07:20;95821.53;;;36.05;42.64
12624;BME280;6377;42.836;23.998;2023-07-16T11:09:50;95815.56;;;35.53;42.93
12624;BME280;6377;42.836;23.998;2023-07-16T11:12:19;95826.34;;;36.17;41.67
12624;BME280;6377;42.836;23.998;2023-07-16T11:14:48;95832.19;;;36.48;40.78
12624;BME280;6377;42.836;23.998;2023-07-16T11:17:16;95839.00;;;36.95;39.13
12624;BME280;6377;42.836;23.998;2023-07-16T11:19:45;95823.66;;;37.19;39.43
12624;BME280;6377;42.836;23.998;2023-07-16T11:22:13;95827.81;;;37.49;38.33
12624;BME280;6377;42.836;23.998;2023-07-16T11:24:43;95825.00;;;37.85;37.02
12624;BME280;6377;42.836;23.998;2023-07-16T11:27:15;95823.91;;;37.62;38.60
12624;BME280;6377;42.836;23.998;2023-07-16T11:29:46;95831.94;;;37.19;39.55
12624;BME280;6377;42.836;23.998;2023-07-16T11:32:14;95828.69;;;37.41;39.70
12624;BME280;6377;42.836;23.998;2023-07-16T11:34:52;95812.69;;;37.83;38.78
12624;BME280;6377;42.836;23.998;2023-07-16T11:37:20;95818.22;;;37.34;39.30
12624;BME280;6377;42.836;23.998;2023-07-16T11:39:49;95814.91;;;37.89;38.35
12624;BME280;6377;42.836;23.998;2023-07-16T11:42:23;95811.28;;;38.13;38.14
12624;BME280;6377;42.836;23.998;2023-07-16T11:44:50;95809.75;;;38.71;37.62
12624;BME280;6377;42.836;23.998;2023-07-16T11:47:18;95813.81;;;39.05;36.17
12624;BME280;6377;42.836;23.998;2023-07-16T11:49:45;95818.66;;;39.24;35.82
12624;BME280;6377;42.836;23.998;2023-07-16T11:52:12;95812.31;;;39.54;34.88
12624;BME280;6377;42.836;23.998;2023-07-16T11:54:39;95794.44;;;39.67;35.22
12624;BME280;6377;42.836;23.998;2023-07-16T11:57:08;95812.56;;;39.02;35.76
12624;BME280;6377;42.836;23.998;2023-07-16T11:59:35;95769.53;;;38.30;36.56
12624;BME280;6377;42.836;23.998;2023-07-16T12:02:02;95779.59;;;38.66;35.79
12624;BME280;6377;42.836;23.998;2023-07-16T12:04:30;95814.19;;;39.19;35.12
12624;BME280;6377;42.836;23.998;2023-07-16T12:06:57;95812.19;;;39.66;34.86
12624;BME280;6377;42.836;23.998;2023-07-16T12:09:24;95817.50;;;39.91;34.55
12624;BME280;6377;42.836;23.998;2023-07-16T12:11:51;95810.09;;;38.69;36.14
12624;BME280;6377;42.836;23.998;2023-07-16T12:14:20;95811.50;;;38.08;37.18
12624;BME280;6377;42.836;23.998;2023-07-16T12:16:47;95819.56;;;38.68;36.27
12624;BME280;6377;42.836;23.998;2023-07-16T12:19:14;95823.09;;;38.53;36.13
12624;BME280;6377;42.836;23.998;2023-07-16T12:21:41;95681.03;;;37.71;36.30
12624;BME280;6377;42.836;23.998;2023-07-16T12:24:08;95819.63;;;37.77;36.31
12624;BME280;6377;42.836;23.998;2023-07-16T12:26:35;95792.00;;;38.17;35.38
12624;BME280;6377;42.836;23.998;2023-07-16T12:29:03;95809.72;;;39.14;34.47
12624;BME280;6377;42.836;23.998;2023-07-16T12:31:31;95813.59;;;39.76;33.16
12624;BME280;6377;42.836;23.998;2023-07-16T12:33:59;95809.53;;;40.24;32.64
12624;BME280;6377;42.836;23.998;2023-07-16T12:36:27;95775.69;;;40.53;31.21
12624;BME280;6377;42.836;23.998;2023-07-16T12:38:55;95812.09;;;41.16;32.20
12624;BME280;6377;42.836;23.998;2023-07-16T12:41:22;95809.53;;;40.62;32.34
12624;BME280;6377;42.836;23.998;2023-07-16T12:43:49;95805.72;;;40.70;31.74
12624;BME280;6377;42.836;23.998;2023-07-16T12:46:16;95669.88;;;39.90;31.91
12624;BME280;6377;42.836;23.998;2023-07-16T12:48:45;95819.41;;;41.24;31.88
12624;BME280;6377;42.836;23.998;2023-07-16T12:51:12;95805.47;;;41.21;31.16
12624;BME280;6377;42.836;23.998;2023-07-16T12:53:39;95807.75;;;41.15;30.98
12624;BME280;6377;42.836;23.998;2023-07-16T12:56:07;95796.25;;;41.17;30.88
12624;BME280;6377;42.836;23.998;2023-07-16T12:58:34;95798.34;;;41.46;31.85
12624;BME280;6377;42.836;23.998;2023-07-16T13:01:01;95800.38;;;41.49;30.58
12624;BME280;6377;42.836;23.998;2023-07-16T13:03:29;95813.84;;;41.47;30.74